Time;durP1;ratioP1;P1;durP2;ratioP2;P2;SDS_P1;SDS_P2;PMS_P1;PMS_P2;Temp;Humidity;BMP_temperature;BMP_pressure;BME280_temperature;BME280_humidity;BME280_pressure;Samples;Min_cycle;Max_cycle;Signal;HPM_P1;HPM_P2
2022/12/20 00:01:32;;;;;;;0.60;0.60;;;9.80;99.90;;;;;;4927027;28;20122;-84
2022/12/20 00:04:01;;;;;;;0.50;0.50;;;9.90;99.90;;;;;;4942252;28;20091;-84
2022/12/20 00:06:27;;;;;;;0.60;0.60;;;9.90;99.90;;;;;;4936400;28;20110;-84
2022/12/20 00:08:59;;;;;;;0.60;0.60;;;9.90;99.90;;;;;;4934108;28;20617;-81
2022/12/20 00:11:27;;;;;;;0.50;0.50;;;9.90;99.90;;;;;;4933619;28;20502;-83
2022/12/20 00:13:53;;;;;;;0.50;0.50;;;9.90;99.90;;;;;;4933539;28;20037;-83
2022/12/20 00:16:21;;;;;;;0.60;0.60;;;9.90;99.90;;;;;;4933980;28;20053;-85
2022/12/20 00:18:52;;;;;;;0.60;0.60;;;9.90;99.90;;;;;;4934349;28;20103;-83
2022/12/20 00:21:19;;;;;;;0.60;0.60;;;9.90;99.90;;;;;;4929123;28;20156;-83
2022/12/20 00:23:45;;;;;;;0.70;0.70;;;9.90;99.90;;;;;;4941414;28;20110;-83
2022/12/20 00:26:17;;;;;;;0.60;0.60;;;10.00;99.90;;;;;;4943100;28;20079;-82
2022/12/20 00:28:44;;;;;;;0.60;0.60;;;9.90;99.90;;;;;;4936665;28;20049;-82
2022/12/20 00:31:11;;;;;;;0.60;0.60;;;9.90;99.90;;;;;;4936283;28;20424;-81
2022/12/20 00:33:39;;;;;;;0.57;0.57;;;9.90;99.90;;;;;;4937996;28;20440;-85
2022/12/20 00:36:06;;;;;;;0.50;0.50;;;10.00;99.90;;;;;;4938335;28;20049;-82
2022/12/20 00:38:33;;;;;;;0.60;0.60;;;9.90;99.90;;;;;;4941087;28;20054;-83
2022/12/20 00:41:04;;;;;;;0.60;0.60;;;10.00;99.90;;;;;;4924931;28;20439;-83
2022/12/20 00:43:31;;;;;;;0.60;0.60;;;10.00;99.90;;;;;;4938995;28;20592;-83
2022/12/20 00:45:57;;;;;;;0.52;0.52;;;10.00;99.90;;;;;;4941005;28;20144;-84
2022/12/20 00:48:23;;;;;;;0.50;0.50;;;10.10;99.90;;;;;;4936227;28;20971;-83
2022/12/20 00:50:50;;;;;;;0.50;0.50;;;10.20;99.90;;;;;;4935417;28;21010;-85
2022/12/20 00:53:16;;;;;;;0.60;0.60;;;10.20;99.90;;;;;;4932348;28;20057;-83
2022/12/20 00:55:44;;;;;;;0.52;0.52;;;10.20;99.90;;;;;;4940956;28;20852;-83
2022/12/20 00:58:10;;;;;;;0.50;0.50;;;10.20;99.90;;;;;;4942996;28;20848;-84
2022/12/20 01:00:37;;;;;;;0.50;0.50;;;10.20;99.90;;;;;;4935853;28;20049;-84
2022/12/20 01:03:05;;;;;;;0.60;0.60;;;10.20;99.90;;;;;;4939024;28;20945;-82
2022/12/20 01:05:32;;;;;;;0.60;0.60;;;10.20;99.90;;;;;;4930471;28;20606;-84
2022/12/20 01:07:57;;;;;;;0.50;0.50;;;10.30;99.90;;;;;;4931564;28;20245;-84
2022/12/20 01:10:23;;;;;;;0.60;0.60;;;10.30;99.90;;;;;;4939124;28;20060;-83
2022/12/20 01:12:49;;;;;;;0.52;0.52;;;10.30;99.90;;;;;;4919870;28;20470;-84
2022/12/20 01:15:15;;;;;;;0.50;0.50;;;10.40;99.90;;;;;;4926983;28;20576;-83
2022/12/20 01:17:41;;;;;;;0.60;0.60;;;10.30;99.90;;;;;;4937270;28;20053;-83
2022/12/20 01:20:08;;;;;;;0.50;0.50;;;10.40;99.90;;;;;;4940293;28;20366;-86
2022/12/20 01:22:34;;;;;;;0.50;0.50;;;10.30;99.90;;;;;;4926869;28;20989;-84
2022/12/20 01:25:00;;;;;;;0.52;0.52;;;10.30;99.90;;;;;;4939034;28;20557;-83
2022/12/20 01:27:27;;;;;;;0.50;0.50;;;10.40;99.90;;;;;;4940365;28;20414;-85
2022/12/20 01:29:53;;;;;;;0.50;0.50;;;10.40;99.90;;;;;;4939620;28;20053;-83
2022/12/20 01:32:19;;;;;;;0.50;0.50;;;10.50;99.90;;;;;;4945895;28;20050;-83
2022/12/20 01:34:46;;;;;;;0.60;0.60;;;10.50;99.90;;;;;;4937127;28;20146;-83
2022/12/20 01:37:12;;;;;;;0.60;0.60;;;10.50;99.90;;;;;;4935361;28;20053;-84
2022/12/20 01:39:37;;;;;;;0.60;0.60;;;10.60;99.90;;;;;;4936565;28;20118;-84
2022/12/20 01:42:04;;;;;;;0.50;0.50;;;10.50;99.90;;;;;;4934880;28;20556;-83
2022/12/20 01:44:31;;;;;;;0.50;0.50;;;10.40;99.90;;;;;;4927627;28;21145;-84
2022/12/20 01:46:57;;;;;;;0.60;0.60;;;10.50;99.90;;;;;;4938151;28;20041;-83
2022/12/20 01:49:39;;;;;;;0.60;0.60;;;10.50;99.90;;;;;;4941827;28;20519;-83
2022/12/20 01:52:11;;;;;;;0.50;0.50;;;10.60;99.90;;;;;;4941384;28;20045;-82
2022/12/20 01:54:49;;;;;;;0.50;0.50;;;10.50;99.90;;;;;;4928861;28;20060;-83
2022/12/20 01:57:21;;;;;;;0.50;0.50;;;10.50;99.90;;;;;;4943240;28;20507;-84
2022/12/20 01:59:49;;;;;;;1.08;1.08;;;10.60;99.90;;;;;;4943418;28;20538;-83
2022/12/20 02:02:16;;;;;;;0.50;0.50;;;10.50;99.90;;;;;;4943590;28;20100;-83
2022/12/20 02:04:42;;;;;;;0.60;0.60;;;10.50;99.90;;;;;;4938055;28;20084;-84
2022/12/20 02:07:10;;;;;;;0.50;0.50;;;10.70;99.90;;;;;;4941193;28;20476;-83
2022/12/20 02:09:37;;;;;;;0.50;0.50;;;10.70;99.90;;;;;;4941340;28;20155;-84
2022/12/20 02:12:20;;;;;;;0.50;0.50;;;10.60;99.90;;;;;;4941457;28;20232;-86
2022/12/20 02:15:13;;;;;;;0.50;0.50;;;10.60;99.90;;;;;;4922927;28;20076;-84
2022/12/20 02:18:05;;;;;;;0.50;0.50;;;10.80;99.90;;;;;;4944993;28;20053;-84
2022/12/20 02:20:46;;;;;;;0.60;0.60;;;10.70;99.90;;;;;;4939599;28;20059;-83
2022/12/20 02:23:27;;;;;;;0.60;0.60;;;10.80;99.90;;;;;;4930616;28;20842;-84
2022/12/20 02:26:08;;;;;;;0.52;0.52;;;10.80;99.90;;;;;;4947720;28;20056;-83
2022/12/20 02:29:12;;;;;;;0.50;0.50;;;10.90;99.90;;;;;;4926659;28;20051;-82
2022/12/20 02:31:47;;;;;;;0.50;0.50;;;10.80;99.90;;;;;;4939212;28;20258;-84
2022/12/20 02:34:15;;;;;;;0.50;0.50;;;10.90;99.90;;;;;;4945413;28;20252;-84
2022/12/20 02:36:41;;;;;;;0.50;0.50;;;10.80;99.90;;;;;;4918868;28;20279;-84
2022/12/20 02:39:12;;;;;;;0.50;0.50;;;10.80;99.90;;;;;;4938624;28;20041;-84
2022/12/20 02:41:48;;;;;;;0.50;0.50;;;10.80;99.90;;;;;;4938671;28;20041;-82
2022/12/20 02:47:06;;;;;;;0.50;0.50;;;10.80;99.90;;;;;;4938248;28;20773;-82
2022/12/20 02:49:37;;;;;;;0.60;0.60;;;10.90;99.90;;;;;;4937485;28;20834;-83
2022/12/20 02:52:05;;;;;;;0.60;0.60;;;10.80;99.90;;;;;;4941745;28;20041;-84
2022/12/20 02:54:32;;;;;;;0.50;0.50;;;10.90;99.90;;;;;;4939261;28;20061;-83
2022/12/20 02:57:12;;;;;;;0.50;0.50;;;10.80;99.90;;;;;;4936769;28;20157;-82
2022/12/20 02:59:56;;;;;;;0.50;0.50;;;10.90;99.90;;;;;;4939388;28;20102;-85
2022/12/20 03:02:24;;;;;;;0.60;0.60;;;10.90;99.90;;;;;;4949386;28;20049;-84
2022/12/20 03:04:51;;;;;;;0.60;0.60;;;10.90;99.90;;;;;;4940496;28;20136;-84
2022/12/20 03:07:18;;;;;;;0.50;0.50;;;10.80;99.90;;;;;;4938007;28;20076;-84
2022/12/20 03:09:45;;;;;;;0.60;0.60;;;10.80;99.90;;;;;;4942145;28;20052;-84
2022/12/20 03:12:12;;;;;;;0.50;0.50;;;10.80;99.90;;;;;;4926935;28;20059;-84
2022/12/20 03:14:39;;;;;;;0.60;0.60;;;10.70;99.90;;;;;;4938140;28;20053;-81
2022/12/20 03:17:05;;;;;;;0.60;0.60;;;10.60;99.90;;;;;;4942801;28;20394;-84
2022/12/20 03:19:32;;;;;;;0.50;0.50;;;10.70;99.90;;;;;;4930587;28;20041;-84
2022/12/20 03:21:58;;;;;;;0.50;0.50;;;10.60;99.90;;;;;;4940802;28;20136;-82
2022/12/20 03:24:25;;;;;;;0.50;0.50;;;10.50;99.90;;;;;;4923607;28;20914;-82
2022/12/20 03:26:51;;;;;;;0.50;0.50;;;10.50;99.90;;;;;;4939466;28;20057;-85
2022/12/20 03:29:17;;;;;;;0.60;0.60;;;10.40;99.90;;;;;;4934959;28;20053;-83
2022/12/20 03:31:43;;;;;;;0.50;0.50;;;10.40;99.90;;;;;;4934309;28;20136;-83
2022/12/20 03:34:09;;;;;;;0.50;0.50;;;10.40;99.90;;;;;;4937381;28;20437;-84
2022/12/20 03:36:35;;;;;;;0.60;0.60;;;10.30;99.90;;;;;;4922875;28;20407;-83
2022/12/20 03:39:01;;;;;;;0.57;0.57;;;10.30;99.90;;;;;;4939401;28;20569;-83
2022/12/20 03:41:27;;;;;;;0.50;0.50;;;10.30;99.90;;;;;;4940537;28;20045;-84
2022/12/20 03:43:53;;;;;;;0.50;0.50;;;10.20;99.90;;;;;;4940441;28;20080;-84
2022/12/20 03:46:19;;;;;;;0.50;0.50;;;10.20;99.90;;;;;;4941361;28;20280;-84
2022/12/20 03:48:45;;;;;;;0.50;0.50;;;10.20;99.90;;;;;;4953047;28;20488;-82
2022/12/20 03:51:11;;;;;;;0.60;0.60;;;10.20;99.90;;;;;;4936350;28;20049;-82
2022/12/20 03:53:37;;;;;;;0.60;0.60;;;10.20;99.90;;;;;;4918512;28;20513;-85
2022/12/20 03:56:03;;;;;;;0.60;0.60;;;10.20;99.90;;;;;;4935050;28;20375;-84
2022/12/20 03:58:29;;;;;;;0.55;0.55;;;10.20;99.90;;;;;;4939927;28;20468;-83
2022/12/20 04:00:56;;;;;;;0.50;0.50;;;10.30;99.90;;;;;;4940381;28;20128;-84
2022/12/20 04:03:22;;;;;;;0.50;0.50;;;10.30;99.90;;;;;;4935800;28;20565;-82
2022/12/20 04:05:48;;;;;;;0.57;0.57;;;10.30;99.90;;;;;;4943416;28;20894;-83
2022/12/20 04:08:14;;;;;;;0.60;0.60;;;10.30;99.90;;;;;;4939147;28;20045;-82
2022/12/20 04:13:24;;;;;;;0.57;0.57;;;10.20;99.90;;;;;;4938512;28;20488;-82
2022/12/20 04:15:50;;;;;;;0.60;0.60;;;10.10;99.90;;;;;;4939275;28;20780;-85
2022/12/20 04:18:16;;;;;;;0.50;0.50;;;10.20;99.90;;;;;;4921037;28;20050;-84
2022/12/20 04:20:42;;;;;;;0.60;0.60;;;10.10;99.90;;;;;;4944202;28;20485;-85
2022/12/20 04:23:08;;;;;;;0.50;0.50;;;10.10;99.90;;;;;;4936448;28;20100;-82
2022/12/20 04:25:34;;;;;;;0.50;0.50;;;10.10;99.90;;;;;;4941854;28;20049;-83
2022/12/20 04:28:00;;;;;;;0.60;0.60;;;10.20;99.90;;;;;;4922427;28;20049;-85
2022/12/20 04:30:26;;;;;;;0.60;0.60;;;10.30;99.90;;;;;;4935770;28;20060;-83
2022/12/20 04:32:53;;;;;;;0.60;0.60;;;10.30;99.90;;;;;;4943064;28;20965;-85
2022/12/20 04:35:20;;;;;;;0.60;0.60;;;10.40;99.90;;;;;;4939841;28;20484;-82
2022/12/20 04:37:46;;;;;;;0.60;0.60;;;10.40;99.90;;;;;;4932558;28;20400;-85
2022/12/20 04:40:12;;;;;;;0.50;0.50;;;10.40;99.90;;;;;;4936059;28;21097;-84
2022/12/20 04:42:38;;;;;;;0.60;0.60;;;10.30;99.90;;;;;;4936379;28;20239;-84
2022/12/20 04:45:05;;;;;;;0.60;0.60;;;10.30;99.90;;;;;;4941859;28;20211;-83
2022/12/20 04:47:30;;;;;;;0.50;0.50;;;10.40;99.90;;;;;;4940867;28;24048;-84
2022/12/20 04:49:56;;;;;;;0.60;0.60;;;10.40;99.90;;;;;;4920896;28;20106;-84
2022/12/20 04:55:08;;;;;;;0.60;0.60;;;10.50;99.90;;;;;;4938414;28;20245;-84
2022/12/20 04:57:34;;;;;;;0.60;0.60;;;10.50;99.90;;;;;;4944189;28;20110;-83
2022/12/20 05:00:00;;;;;;;0.60;0.60;;;10.50;99.90;;;;;;4944343;28;20103;-83
2022/12/20 05:02:26;;;;;;;0.60;0.60;;;10.50;99.90;;;;;;4945759;28;21024;-84
2022/12/20 05:04:52;;;;;;;0.60;0.60;;;10.60;99.90;;;;;;4934679;28;20081;-83
2022/12/20 05:07:18;;;;;;;0.60;0.60;;;10.60;99.90;;;;;;4942903;28;20063;-83
2022/12/20 05:09:43;;;;;;;0.50;0.50;;;10.70;99.90;;;;;;4942236;28;20558;-83
2022/12/20 05:12:09;;;;;;;0.60;0.60;;;10.70;99.90;;;;;;4942755;28;20504;-83
2022/12/20 05:14:35;;;;;;;0.50;0.50;;;10.70;99.90;;;;;;4922946;28;20469;-86
2022/12/20 05:17:01;;;;;;;0.60;0.60;;;10.80;99.90;;;;;;4945069;28;20436;-82
2022/12/20 05:19:27;;;;;;;0.60;0.60;;;10.80;99.90;;;;;;4945202;28;20065;-82
2022/12/20 05:27:22;;;;;;;0.60;0.60;;;11.00;99.90;;;;;;4954081;28;20071;-83
2022/12/20 05:29:48;;;;;;;0.60;0.60;;;11.00;99.90;;;;;;4944690;28;20119;-84
2022/12/20 05:32:14;;;;;;;0.50;0.50;;;11.10;99.90;;;;;;4950148;28;20045;-83
2022/12/20 05:34:40;;;;;;;0.50;0.50;;;11.10;99.90;;;;;;4925359;28;20381;-84
2022/12/20 05:37:06;;;;;;;0.50;0.50;;;11.20;99.90;;;;;;4950702;28;20453;-83
2022/12/20 05:39:32;;;;;;;0.50;0.50;;;11.20;99.90;;;;;;4944470;28;21066;-84
2022/12/20 05:41:58;;;;;;;0.60;0.60;;;11.10;99.90;;;;;;4941544;28;20136;-84
2022/12/20 05:44:25;;;;;;;0.50;0.50;;;11.20;99.90;;;;;;4946503;28;20456;-80
2022/12/20 05:46:51;;;;;;;0.60;0.60;;;11.20;99.90;;;;;;4945311;28;20049;-83
2022/12/20 05:49:16;;;;;;;0.60;0.60;;;11.30;99.90;;;;;;4941518;28;20052;-84
2022/12/20 05:51:42;;;;;;;0.50;0.50;;;11.30;99.90;;;;;;4929006;28;20490;-81
2022/12/20 05:54:08;;;;;;;0.50;0.50;;;11.30;99.90;;;;;;4930892;28;20052;-83
2022/12/20 05:56:34;;;;;;;0.50;0.50;;;11.20;99.90;;;;;;4948753;28;20612;-82
2022/12/20 05:59:00;;;;;;;0.50;0.50;;;11.30;99.90;;;;;;4945212;28;20111;-83
2022/12/20 06:01:26;;;;;;;0.50;0.50;;;11.20;99.90;;;;;;4932738;28;20212;-84
2022/12/20 06:03:52;;;;;;;0.50;0.50;;;11.10;99.90;;;;;;4947633;28;20045;-83
2022/12/20 06:06:18;;;;;;;0.60;0.60;;;11.10;99.90;;;;;;4946110;28;20060;-84
2022/12/20 06:08:44;;;;;;;0.50;0.50;;;11.10;99.90;;;;;;4950402;28;20049;-84
2022/12/20 06:11:10;;;;;;;0.50;0.50;;;11.10;99.90;;;;;;4927406;28;20053;-83
2022/12/20 06:13:36;;;;;;;0.50;0.50;;;11.10;99.90;;;;;;4928814;28;20513;-84
2022/12/20 06:16:02;;;;;;;0.50;0.50;;;11.10;99.90;;;;;;4943167;28;20990;-82
2022/12/20 06:18:28;;;;;;;0.50;0.50;;;11.00;99.90;;;;;;4938832;28;20051;-82
2022/12/20 06:20:54;;;;;;;0.50;0.50;;;11.10;99.90;;;;;;4928678;28;20045;-83
2022/12/20 06:23:20;;;;;;;0.50;0.50;;;11.10;99.90;;;;;;4945087;28;20055;-83
2022/12/20 06:25:47;;;;;;;0.50;0.50;;;11.20;99.90;;;;;;4946204;28;20069;-83
2022/12/20 06:28:15;;;;;;;0.50;0.50;;;11.20;99.90;;;;;;4951178;28;20053;-84
2022/12/20 06:30:41;;;;;;;0.60;0.60;;;11.10;99.90;;;;;;4940285;28;20368;-83
2022/12/20 06:33:07;;;;;;;0.50;0.50;;;11.30;99.90;;;;;;4945150;28;20167;-83
2022/12/20 06:35:33;;;;;;;0.50;0.50;;;11.30;99.90;;;;;;4944994;28;20451;-83
2022/12/20 06:37:59;;;;;;;0.50;0.50;;;11.30;99.90;;;;;;4925148;28;20157;-85
2022/12/20 06:40:25;;;;;;;0.60;0.60;;;11.30;99.90;;;;;;4944461;28;20080;-85
2022/12/20 06:42:52;;;;;;;0.60;0.60;;;11.30;99.90;;;;;;4966199;28;21166;-82
2022/12/20 06:45:18;;;;;;;0.60;0.60;;;11.20;99.90;;;;;;4975302;28;20075;-83
2022/12/20 06:47:44;;;;;;;0.60;0.60;;;11.20;99.90;;;;;;4941068;28;20751;-82
2022/12/20 06:50:10;;;;;;;0.50;0.50;;;11.10;99.90;;;;;;4946547;28;20045;-84
2022/12/20 06:52:35;;;;;;;0.50;0.50;;;11.20;99.90;;;;;;4940242;28;20049;-83
2022/12/20 06:55:01;;;;;;;0.50;0.50;;;11.10;99.90;;;;;;4942356;28;20147;-84
2022/12/20 06:57:27;;;;;;;0.50;0.50;;;11.00;99.90;;;;;;4945189;28;20597;-82
2022/12/20 06:59:53;;;;;;;0.50;0.50;;;11.00;99.90;;;;;;4929566;28;20049;-85
2022/12/20 07:02:19;;;;;;;0.60;0.60;;;11.00;99.90;;;;;;4942066;28;20413;-83
2022/12/20 07:04:45;;;;;;;0.55;0.55;;;11.00;99.90;;;;;;4946608;28;20096;-81
2022/12/20 07:07:12;;;;;;;0.55;0.55;;;11.00;99.90;;;;;;4931635;28;20619;-81
2022/12/20 07:09:40;;;;;;;0.50;0.50;;;11.00;99.90;;;;;;4953558;28;20051;-82
2022/12/20 07:12:09;;;;;;;0.50;0.50;;;11.00;99.90;;;;;;4935106;28;20263;-83
2022/12/20 07:14:35;;;;;;;0.50;0.50;;;11.00;99.90;;;;;;4954190;28;20510;-82
2022/12/20 07:17:06;;;;;;;0.50;0.50;;;11.00;99.90;;;;;;4944178;28;20068;-83
2022/12/20 07:19:32;;;;;;;0.50;0.50;;;10.90;99.90;;;;;;4945816;28;20053;-83
2022/12/20 07:21:58;;;;;;;0.57;0.57;;;10.90;99.90;;;;;;4941061;28;20049;-82
2022/12/20 07:24:24;;;;;;;0.60;0.60;;;11.00;99.90;;;;;;4949578;28;20049;-84
2022/12/20 07:26:50;;;;;;;0.50;0.50;;;11.00;99.90;;;;;;4940327;28;20146;-82
2022/12/20 07:29:16;;;;;;;0.60;0.60;;;10.90;99.90;;;;;;4914034;28;20368;-84
2022/12/20 07:31:41;;;;;;;0.50;0.50;;;10.90;99.90;;;;;;4947328;28;20530;-84
2022/12/20 07:34:07;;;;;;;0.60;0.60;;;10.90;99.90;;;;;;4945019;28;20095;-82
2022/12/20 07:36:34;;;;;;;0.50;0.50;;;10.90;99.90;;;;;;4951232;28;21062;-83
2022/12/20 07:39:00;;;;;;;0.50;0.50;;;10.90;99.90;;;;;;4951678;28;20044;-83
2022/12/20 07:41:26;;;;;;;0.60;0.60;;;10.90;99.90;;;;;;4945149;28;20892;-83
2022/12/20 07:43:52;;;;;;;0.50;0.50;;;10.90;99.90;;;;;;4944240;28;20077;-84
2022/12/20 07:46:18;;;;;;;0.60;0.60;;;11.00;99.90;;;;;;4945051;28;20049;-83
2022/12/20 07:48:44;;;;;;;0.60;0.60;;;11.00;99.90;;;;;;4944411;28;20410;-81
2022/12/20 07:51:30;;;;;;;0.57;0.57;;;11.00;99.90;;;;;;4945822;28;20816;-81
2022/12/20 07:54:12;;;;;;;0.50;0.50;;;11.00;99.90;;;;;;4944162;28;20049;-80
2022/12/20 07:56:42;;;;;;;0.50;0.50;;;11.00;99.90;;;;;;4952836;28;20451;-84
2022/12/20 07:59:11;;;;;;;0.50;0.50;;;11.00;99.90;;;;;;4927057;28;20064;-81
2022/12/20 08:01:38;;;;;;;0.50;0.50;;;11.00;99.90;;;;;;4969334;28;20406;-83
2022/12/20 08:04:13;;;;;;;0.50;0.50;;;11.00;99.90;;;;;;4955752;28;20378;-83
2022/12/20 08:06:40;;;;;;;0.50;0.50;;;11.00;99.90;;;;;;4949204;28;20053;-81
2022/12/20 08:09:08;;;;;;;0.50;0.50;;;11.00;99.90;;;;;;4962308;28;20036;-82
2022/12/20 08:11:36;;;;;;;0.50;0.50;;;11.10;99.90;;;;;;4947495;28;20080;-82
2022/12/20 08:14:03;;;;;;;0.50;0.50;;;11.10;99.90;;;;;;4944903;28;20045;-83
2022/12/20 08:16:30;;;;;;;0.50;0.50;;;11.10;99.90;;;;;;4940442;28;20053;-85
2022/12/20 08:18:56;;;;;;;0.50;0.50;;;11.20;99.90;;;;;;4951477;28;20077;-84
2022/12/20 08:21:22;;;;;;;0.57;0.57;;;11.20;99.90;;;;;;4946147;28;20465;-85
2022/12/20 08:23:48;;;;;;;0.50;0.50;;;11.20;99.90;;;;;;4948565;28;20053;-85
2022/12/20 08:26:14;;;;;;;0.50;0.50;;;11.30;99.90;;;;;;4925272;28;21204;-83
2022/12/20 08:28:40;;;;;;;0.57;0.57;;;11.30;99.90;;;;;;4942910;28;20056;-86
2022/12/20 08:31:08;;;;;;;0.50;0.50;;;11.40;99.90;;;;;;4943926;28;20489;-83
2022/12/20 08:33:37;;;;;;;0.50;0.50;;;11.30;99.90;;;;;;4940832;28;20061;-84
2022/12/20 08:36:07;;;;;;;0.50;0.50;;;11.30;99.90;;;;;;4941038;28;20057;-84
2022/12/20 08:38:33;;;;;;;0.50;0.50;;;11.30;99.90;;;;;;4935922;28;20155;-82
2022/12/20 08:41:07;;;;;;;0.50;0.50;;;11.40;99.90;;;;;;4937679;28;20090;-84
2022/12/20 08:43:34;;;;;;;0.50;0.50;;;11.40;99.90;;;;;;4942662;28;20546;-83
2022/12/20 08:45:59;;;;;;;0.50;0.50;;;11.30;99.90;;;;;;4941998;28;20291;-84
2022/12/20 08:48:26;;;;;;;0.50;0.50;;;11.30;99.90;;;;;;4945446;28;20044;-83
2022/12/20 08:51:00;;;;;;;0.50;0.50;;;11.40;99.90;;;;;;4945115;28;20380;-83
2022/12/20 08:53:27;;;;;;;;;;;11.40;99.90;;;;;;4950381;28;20124;-86
2022/12/20 08:55:53;;;;;;;0.50;0.50;;;11.40;99.90;;;;;;4951186;28;19924;-86
2022/12/20 08:58:21;;;;;;;0.50;0.50;;;11.50;99.90;;;;;;4948806;28;20518;-84
2022/12/20 09:00:48;;;;;;;0.50;0.50;;;11.50;99.90;;;;;;4944906;28;20290;-84
2022/12/20 09:03:14;;;;;;;0.50;0.50;;;11.50;99.90;;;;;;4947843;28;20754;-84
2022/12/20 09:05:45;;;;;;;0.50;0.50;;;11.40;99.90;;;;;;4930587;28;20040;-83
2022/12/20 09:08:11;;;;;;;0.50;0.50;;;11.40;99.90;;;;;;4943294;28;20060;-84
2022/12/20 09:10:36;;;;;;;0.50;0.50;;;11.40;99.90;;;;;;4954472;28;20529;-87
2022/12/20 09:13:02;;;;;;;0.50;0.50;;;11.40;99.90;;;;;;4956788;28;20049;-86
2022/12/20 09:15:28;;;;;;;0.50;0.50;;;11.40;99.90;;;;;;4950945;28;20095;-85
2022/12/20 09:17:54;;;;;;;0.50;0.50;;;11.40;99.90;;;;;;4951646;28;20162;-85
2022/12/20 09:20:20;;;;;;;0.50;0.50;;;11.50;99.90;;;;;;4947737;28;20814;-84
2022/12/20 09:22:46;;;;;;;0.50;0.50;;;11.50;99.90;;;;;;4948737;28;20049;-83
2022/12/20 09:25:12;;;;;;;0.50;0.50;;;11.50;99.90;;;;;;4928738;28;20057;-84
2022/12/20 09:27:39;;;;;;;0.50;0.50;;;11.50;99.90;;;;;;4945860;28;20052;-84
2022/12/20 09:30:05;;;;;;;0.50;0.50;;;11.40;99.90;;;;;;4944398;28;20052;-84
2022/12/20 09:32:31;;;;;;;0.50;0.50;;;11.50;99.90;;;;;;4950247;28;20048;-84
2022/12/20 09:34:57;;;;;;;0.50;0.50;;;11.50;99.90;;;;;;4942816;28;20123;-84
2022/12/20 09:37:22;;;;;;;0.50;0.50;;;11.40;99.90;;;;;;4948532;28;20118;-86
2022/12/20 09:39:51;;;;;;;0.57;0.57;;;11.40;99.90;;;;;;4915972;28;20576;-86
2022/12/20 09:42:21;;;;;;;0.50;0.50;;;11.40;99.90;;;;;;4950072;28;20161;-84
2022/12/20 09:44:47;;;;;;;0.60;0.60;;;11.40;99.90;;;;;;4954500;28;20249;-85
2022/12/20 09:47:18;;;;;;;0.50;0.50;;;11.40;99.90;;;;;;4951845;28;20056;-82
2022/12/20 09:49:48;;;;;;;0.55;0.55;;;11.40;99.90;;;;;;4949708;28;20057;-84
2022/12/20 09:52:20;;;;;;;0.50;0.50;;;11.30;99.90;;;;;;4954578;28;20045;-85
2022/12/20 09:55:04;;;;;;;0.50;0.50;;;11.30;99.90;;;;;;4954043;28;20437;-85
2022/12/20 09:57:51;;;;;;;0.60;0.60;;;11.20;99.90;;;;;;4958491;28;20645;-84
2022/12/20 10:00:19;;;;;;;0.55;0.55;;;11.20;99.90;;;;;;4952727;28;20508;-84
2022/12/20 10:02:46;;;;;;;0.50;0.50;;;11.10;99.90;;;;;;4952332;28;20132;-82
2022/12/20 10:05:23;;;;;;;0.50;0.50;;;11.10;99.90;;;;;;4929996;28;20571;-87
2022/12/20 10:07:55;;;;;;;0.50;0.50;;;11.10;99.90;;;;;;4931107;28;21045;-82
2022/12/20 10:10:37;;;;;;;0.50;0.50;;;11.00;99.90;;;;;;4936633;28;20389;-84
2022/12/20 10:13:19;;;;;;;0.60;0.60;;;10.90;99.90;;;;;;4947906;28;20087;-84
2022/12/20 10:16:15;;;;;;;0.50;0.50;;;10.90;99.90;;;;;;4958077;28;20384;-86
2022/12/20 10:19:02;;;;;;;0.52;0.52;;;10.90;99.90;;;;;;4949816;28;20053;-85
2022/12/20 10:21:45;;;;;;;0.60;0.60;;;10.90;99.90;;;;;;4953744;28;20756;-88
2022/12/20 10:24:19;;;;;;;0.60;0.60;;;10.80;99.90;;;;;;4951411;28;20116;-86
2022/12/20 10:26:49;;;;;;;0.50;0.50;;;10.80;99.90;;;;;;4948570;28;20148;-88
2022/12/20 10:29:15;;;;;;;0.60;0.60;;;10.80;99.90;;;;;;4948872;28;20719;-86
2022/12/20 10:31:41;;;;;;;0.60;0.60;;;10.90;99.90;;;;;;4955410;28;20866;-85
2022/12/20 10:34:07;;;;;;;0.50;0.50;;;10.90;99.90;;;;;;4950083;28;20316;-84
2022/12/20 10:36:35;;;;;;;0.50;0.50;;;10.90;99.90;;;;;;4938698;28;20047;-84
2022/12/20 10:39:05;;;;;;;0.60;0.60;;;10.80;99.90;;;;;;4951249;28;20716;-87
2022/12/20 10:41:43;;;;;;;0.55;0.55;;;10.80;99.90;;;;;;4954381;28;20400;-88
2022/12/20 10:44:27;;;;;;;0.50;0.50;;;10.80;99.90;;;;;;4952993;28;20041;-84
2022/12/20 10:46:57;;;;;;;0.60;0.60;;;10.90;99.90;;;;;;4955021;28;20052;-88
2022/12/20 10:49:36;;;;;;;0.50;0.50;;;10.90;99.90;;;;;;4937741;28;20642;-85
2022/12/20 10:52:08;;;;;;;0.50;0.50;;;10.90;99.90;;;;;;4958060;28;20052;-85
2022/12/20 10:54:41;;;;;;;0.60;0.60;;;10.90;99.90;;;;;;4956017;28;20926;-89
2022/12/20 10:57:30;;;;;;;0.60;0.60;;;10.90;99.90;;;;;;4936265;28;20450;-90
2022/12/20 11:00:04;;;;;;;0.50;0.50;;;10.90;99.90;;;;;;4937877;28;20072;-87
2022/12/20 11:02:35;;;;;;;0.60;0.60;;;10.90;99.90;;;;;;4954673;28;20436;-86
2022/12/20 11:05:09;;;;;;;0.50;0.50;;;11.00;99.90;;;;;;4956567;28;20069;-87
2022/12/20 11:07:38;;;;;;;0.60;0.60;;;11.00;99.90;;;;;;4958716;28;20045;-88
2022/12/20 11:10:39;;;;;;;0.50;0.50;;;11.00;99.90;;;;;;4953875;28;20048;-87
2022/12/20 11:13:05;;;;;;;0.50;0.50;;;11.00;99.90;;;;;;4933730;28;20236;-87
2022/12/20 11:15:33;;;;;;;0.50;0.50;;;11.00;99.90;;;;;;4937086;28;20045;-89
2022/12/20 11:18:05;;;;;;;0.50;0.50;;;11.00;99.90;;;;;;4933382;28;20051;-88
2022/12/20 11:20:52;;;;;;;0.50;0.50;;;11.00;99.90;;;;;;4969555;28;20058;-86
2022/12/20 11:23:32;;;;;;;0.60;0.60;;;11.00;99.90;;;;;;4935871;28;20045;-87
2022/12/20 11:26:17;;;;;;;0.50;0.50;;;11.00;99.90;;;;;;4941535;28;20374;-87
2022/12/20 11:28:46;;;;;;;0.50;0.50;;;11.00;99.90;;;;;;4951364;28;20478;-88
2022/12/20 11:31:36;;;;;;;0.50;0.50;;;11.00;99.90;;;;;;4957983;28;20451;-87
2022/12/20 11:34:27;;;;;;;0.60;0.60;;;10.90;99.90;;;;;;4945244;28;20292;-85
2022/12/20 11:37:15;;;;;;;0.50;0.50;;;10.90;99.90;;;;;;4947244;28;20089;-88
2022/12/20 11:39:59;;;;;;;0.50;0.50;;;10.90;99.90;;;;;;4958190;28;20164;-88
2022/12/20 11:42:36;;;;;;;0.55;0.55;;;11.00;99.90;;;;;;4947001;28;20055;-88
2022/12/20 11:45:41;;;;;;;0.50;0.50;;;11.00;99.90;;;;;;4942269;28;20380;-87
2022/12/20 11:48:32;;;;;;;0.52;0.52;;;10.90;99.90;;;;;;4938169;28;20902;-88
2022/12/20 11:50:58;;;;;;;0.50;0.50;;;11.00;99.90;;;;;;4947125;28;20689;-93
2022/12/20 11:53:42;;;;;;;0.50;0.50;;;10.90;99.90;;;;;;4950267;28;20518;-88
2022/12/20 11:56:15;;;;;;;0.50;0.50;;;10.90;99.90;;;;;;4959701;28;20103;-88
2022/12/20 11:58:54;;;;;;;0.60;0.60;;;10.90;99.90;;;;;;4950029;28;20118;-87
2022/12/20 12:01:28;;;;;;;0.60;0.60;;;10.90;99.90;;;;;;4975270;28;20957;-88
2022/12/20 12:04:33;;;;;;;0.60;0.60;;;10.90;99.90;;;;;;4965980;28;20057;-88
2022/12/20 12:07:27;;;;;;;0.60;0.60;;;10.90;99.90;;;;;;4931641;28;20270;-87
2022/12/20 12:10:06;;;;;;;0.52;0.52;;;10.90;99.90;;;;;;4941529;28;20144;-87
2022/12/20 12:12:39;;;;;;;0.60;0.60;;;10.90;99.90;;;;;;4954228;28;20199;-87
2022/12/20 12:15:23;;;;;;;0.60;0.60;;;10.90;99.90;;;;;;4964458;28;20252;-91
2022/12/20 12:18:22;;;;;;;0.50;0.50;;;10.90;99.90;;;;;;4955967;28;20041;-87
2022/12/20 12:21:08;;;;;;;0.60;0.60;;;11.00;99.90;;;;;;4946598;28;20432;-87
2022/12/20 12:23:53;;;;;;;0.60;0.60;;;11.00;99.90;;;;;;4956813;28;20439;-89
2022/12/20 12:26:28;;;;;;;0.60;0.60;;;11.00;99.90;;;;;;4947757;28;20073;-85
2022/12/20 12:29:10;;;;;;;0.50;0.50;;;11.00;99.90;;;;;;4952318;28;20581;-88
2022/12/20 12:31:39;;;;;;;0.50;0.50;;;11.00;99.90;;;;;;4937893;28;20048;-89
2022/12/20 12:34:20;;;;;;;0.50;0.50;;;11.00;99.90;;;;;;4944058;28;20208;-88
2022/12/20 12:37:11;;;;;;;0.60;0.60;;;11.00;99.90;;;;;;4951517;28;20049;-90
2022/12/20 12:39:52;;;;;;;0.60;0.60;;;11.00;99.90;;;;;;4946515;28;20072;-87
2022/12/20 12:42:45;;;;;;;0.60;0.60;;;11.10;99.90;;;;;;4943525;28;20410;-88
2022/12/20 12:45:43;;;;;;;0.50;0.50;;;11.00;99.90;;;;;;4958391;28;20048;-89
2022/12/20 12:48:30;;;;;;;0.60;0.60;;;11.00;99.90;;;;;;4946219;28;20057;-92
2022/12/20 12:50:57;;;;;;;0.60;0.60;;;11.00;99.90;;;;;;4955312;28;20052;-88
2022/12/20 12:53:43;;;;;;;0.50;0.50;;;11.00;99.90;;;;;;4949062;28;20047;-89
2022/12/20 12:56:25;;;;;;;0.50;0.50;;;11.00;99.90;;;;;;4956083;28;20118;-90
2022/12/20 12:59:06;;;;;;;0.60;0.60;;;11.00;99.90;;;;;;4944208;28;20213;-89
2022/12/20 13:01:52;;;;;;;0.50;0.50;;;11.10;99.90;;;;;;4932951;28;20901;-88
2022/12/20 13:04:21;;;;;;;0.60;0.60;;;11.00;99.90;;;;;;4953508;28;20042;-89
2022/12/20 13:06:47;;;;;;;0.60;0.60;;;11.00;99.90;;;;;;4933662;28;20885;-87
2022/12/20 13:09:21;;;;;;;0.50;0.50;;;11.00;99.90;;;;;;4952248;28;20045;-90
2022/12/20 13:11:48;;;;;;;0.50;0.50;;;11.00;99.90;;;;;;4936747;28;20037;-86
2022/12/20 13:14:22;;;;;;;0.50;0.50;;;11.00;99.90;;;;;;4940406;28;20472;-88
2022/12/20 13:17:01;;;;;;;0.60;0.60;;;11.10;99.90;;;;;;4934181;28;20139;-86
2022/12/20 13:19:27;;;;;;;0.57;0.57;;;11.00;99.90;;;;;;4952844;28;20049;-87